sensor_id;sensor_type;location;lat;lon;timestamp;pressure;altitude;pressure_sealevel;temperature;humidity
11329;BME280;5719;42.714;23.732;2023-07-13T00:01:47;94723.66;;;20.65;100.00
11329;BME280;5719;42.714;23.732;2023-07-13T00:04:16;94719.72;;;20.61;100.00
11329;BME280;5719;42.714;23.732;2023-07-13T00:06:43;94730.22;;;20.69;100.00
11329;BME280;5719;42.714;23.732;2023-07-13T00:09:11;94712.81;;;20.60;100.00
11329;BME280;5719;42.714;23.732;2023-07-13T00:11:40;94715.94;;;20.55;100.00
11329;BME280;5719;42.714;23.732;2023-07-13T00:14:08;94724.47;;;20.65;100.00
11329;BME280;5719;42.714;23.732;2023-07-13T00:16:36;94739.41;;;20.65;100.00
11329;BME280;5719;42.714;23.732;2023-07-13T00:19:04;94723.47;;;20.66;100.00
11329;BME280;5719;42.714;23.732;2023-07-13T00:21:30;94719.38;;;20.64;100.00
11329;BME280;5719;42.714;23.732;2023-07-13T00:23:57;94721.53;;;20.60;100.00
11329;BME280;5719;42.714;23.732;2023-07-13T00:26:26;94715.94;;;20.55;100.00
11329;BME280;5719;42.714;23.732;2023-07-13T00:28:55;94706.56;;;20.44;100.00
11329;BME280;5719;42.714;23.732;2023-07-13T00:31:21;94706.41;;;20.38;100.00
11329;BME280;5719;42.714;23.732;2023-07-13T00:33:48;94699.19;;;20.32;100.00
11329;BME280;5719;42.714;23.732;2023-07-13T00:36:15;94705.44;;;20.31;100.00
11329;BME280;5719;42.714;23.732;2023-07-13T00:38:42;94701.94;;;20.22;100.00
11329;BME280;5719;42.714;23.732;2023-07-13T00:41:10;94697.69;;;20.13;100.00
11329;BME280;5719;42.714;23.732;2023-07-13T00:43:37;94714.72;;;20.09;100.00
11329;BME280;5719;42.714;23.732;2023-07-13T00:46:19;94692.06;;;19.92;100.00
11329;BME280;5719;42.714;23.732;2023-07-13T00:48:48;94715.03;;;19.98;100.00
11329;BME280;5719;42.714;23.732;2023-07-13T00:51:18;94713.72;;;20.02;100.00
11329;BME280;5719;42.714;23.732;2023-07-13T00:53:47;94712.91;;;19.85;100.00
11329;BME280;5719;42.714;23.732;2023-07-13T00:56:14;94706.03;;;19.92;100.00
11329;BME280;5719;42.714;23.732;2023-07-13T00:58:42;94714.69;;;19.93;100.00
11329;BME280;5719;42.714;23.732;2023-07-13T01:01:09;94706.16;;;19.91;100.00
11329;BME280;5719;42.714;23.732;2023-07-13T01:03:40;94703.41;;;19.92;100.00
11329;BME280;5719;42.714;23.732;2023-07-13T01:06:07;94690.06;;;19.86;100.00
11329;BME280;5719;42.714;23.732;2023-07-13T01:08:34;94701.88;;;19.90;100.00
11329;BME280;5719;42.714;23.732;2023-07-13T01:11:01;94699.94;;;19.92;100.00
11329;BME280;5719;42.714;23.732;2023-07-13T01:13:28;94697.66;;;19.89;100.00
11329;BME280;5719;42.714;23.732;2023-07-13T01:15:57;94701.56;;;19.93;100.00
11329;BME280;5719;42.714;23.732;2023-07-13T01:18:26;94696.63;;;19.90;100.00
11329;BME280;5719;42.714;23.732;2023-07-13T01:20:56;94692.88;;;19.84;100.00
11329;BME280;5719;42.714;23.732;2023-07-13T01:23:24;94694.81;;;19.82;100.00
11329;BME280;5719;42.714;23.732;2023-07-13T01:25:52;94706.13;;;19.75;100.00
11329;BME280;5719;42.714;23.732;2023-07-13T01:28:21;94695.13;;;19.63;100.00
11329;BME280;5719;42.714;23.732;2023-07-13T01:30:49;94701.81;;;19.57;100.00
11329;BME280;5719;42.714;23.732;2023-07-13T01:33:17;94685.91;;;19.51;100.00
11329;BME280;5719;42.714;23.732;2023-07-13T01:35:45;94686.53;;;19.45;100.00
11329;BME280;5719;42.714;23.732;2023-07-13T01:38:15;94686.28;;;19.38;100.00
11329;BME280;5719;42.714;23.732;2023-07-13T01:40:43;94693.38;;;19.38;100.00
11329;BME280;5719;42.714;23.732;2023-07-13T01:43:10;94648.34;;;19.08;100.00
11329;BME280;5719;42.714;23.732;2023-07-13T01:45:37;94691.53;;;19.38;100.00
11329;BME280;5719;42.714;23.732;2023-07-13T01:48:04;94691.22;;;19.33;100.00
11329;BME280;5719;42.714;23.732;2023-07-13T01:50:32;94692.69;;;19.36;100.00
11329;BME280;5719;42.714;23.732;2023-07-13T01:52:59;94693.66;;;19.35;100.00
11329;BME280;5719;42.714;23.732;2023-07-13T01:55:27;94691.84;;;19.35;100.00
11329;BME280;5719;42.714;23.732;2023-07-13T01:57:55;94679.72;;;19.26;100.00
11329;BME280;5719;42.714;23.732;2023-07-13T02:00:22;94683.78;;;19.21;100.00
11329;BME280;5719;42.714;23.732;2023-07-13T02:02:48;94702.91;;;19.13;100.00
11329;BME280;5719;42.714;23.732;2023-07-13T02:05:15;94697.88;;;19.20;100.00
11329;BME280;5719;42.714;23.732;2023-07-13T02:07:43;94704.91;;;19.19;100.00
11329;BME280;5719;42.714;23.732;2023-07-13T02:10:10;94705.56;;;19.21;100.00
11329;BME280;5719;42.714;23.732;2023-07-13T02:12:39;94705.56;;;19.21;100.00
11329;BME280;5719;42.714;23.732;2023-07-13T02:15:08;94705.56;;;19.21;100.00
11329;BME280;5719;42.714;23.732;2023-07-13T02:17:35;94703.91;;;19.20;100.00
11329;BME280;5719;42.714;23.732;2023-07-13T02:20:03;94700.00;;;19.16;100.00
11329;BME280;5719;42.714;23.732;2023-07-13T02:22:31;94708.47;;;19.10;100.00
11329;BME280;5719;42.714;23.732;2023-07-13T02:24:58;94704.50;;;19.06;100.00
11329;BME280;5719;42.714;23.732;2023-07-13T02:27:25;94711.03;;;19.02;100.00
11329;BME280;5719;42.714;23.732;2023-07-13T02:29:54;94696.56;;;18.90;100.00
11329;BME280;5719;42.714;23.732;2023-07-13T02:32:20;94710.31;;;18.92;100.00
11329;BME280;5719;42.714;23.732;2023-07-13T02:34:47;94711.97;;;18.93;100.00
11329;BME280;5719;42.714;23.732;2023-07-13T02:37:14;94708.97;;;18.88;100.00
11329;BME280;5719;42.714;23.732;2023-07-13T02:39:41;94708.94;;;18.80;100.00
11329;BME280;5719;42.714;23.732;2023-07-13T02:42:08;94705.78;;;18.76;100.00
11329;BME280;5719;42.714;23.732;2023-07-13T02:44:35;94702.84;;;18.71;100.00
11329;BME280;5719;42.714;23.732;2023-07-13T02:47:03;94709.22;;;18.69;100.00
11329;BME280;5719;42.714;23.732;2023-07-13T02:49:30;94715.09;;;18.71;100.00
11329;BME280;5719;42.714;23.732;2023-07-13T02:51:57;94725.19;;;18.66;100.00
11329;BME280;5719;42.714;23.732;2023-07-13T02:54:25;94692.81;;;18.49;100.00
11329;BME280;5719;42.714;23.732;2023-07-13T02:56:52;94715.97;;;18.53;100.00
11329;BME280;5719;42.714;23.732;2023-07-13T02:59:18;94714.84;;;18.56;100.00
11329;BME280;5719;42.714;23.732;2023-07-13T03:01:45;94718.41;;;18.55;100.00
11329;BME280;5719;42.714;23.732;2023-07-13T03:04:13;94702.25;;;18.42;100.00
11329;BME280;5719;42.714;23.732;2023-07-13T03:06:44;94712.53;;;18.35;100.00
11329;BME280;5719;42.714;23.732;2023-07-13T03:09:11;94714.44;;;18.33;100.00
11329;BME280;5719;42.714;23.732;2023-07-13T03:11:38;94706.25;;;18.28;100.00
11329;BME280;5719;42.714;23.732;2023-07-13T03:14:05;94681.06;;;18.09;100.00
11329;BME280;5719;42.714;23.732;2023-07-13T03:16:32;94712.66;;;18.34;100.00
11329;BME280;5719;42.714;23.732;2023-07-13T03:18:59;94711.84;;;18.33;100.00
11329;BME280;5719;42.714;23.732;2023-07-13T03:21:27;94710.03;;;18.34;100.00
11329;BME280;5719;42.714;23.732;2023-07-13T03:23:54;94708.56;;;18.31;100.00
11329;BME280;5719;42.714;23.732;2023-07-13T03:26:21;94716.94;;;18.35;100.00
11329;BME280;5719;42.714;23.732;2023-07-13T03:28:48;94711.69;;;18.35;100.00
11329;BME280;5719;42.714;23.732;2023-07-13T03:31:17;94718.41;;;18.37;100.00
11329;BME280;5719;42.714;23.732;2023-07-13T03:33:45;94711.00;;;18.33;100.00
11329;BME280;5719;42.714;23.732;2023-07-13T03:36:14;94712.53;;;18.35;100.00
11329;BME280;5719;42.714;23.732;2023-07-13T03:38:46;94703.78;;;18.27;100.00
11329;BME280;5719;42.714;23.732;2023-07-13T03:41:14;94705.78;;;18.33;100.00
11329;BME280;5719;42.714;23.732;2023-07-13T03:43:41;94714.25;;;18.27;100.00
11329;BME280;5719;42.714;23.732;2023-07-13T03:46:08;94713.06;;;18.21;100.00
11329;BME280;5719;42.714;23.732;2023-07-13T03:48:35;94719.78;;;18.24;100.00
11329;BME280;5719;42.714;23.732;2023-07-13T03:51:02;94709.81;;;18.27;100.00
11329;BME280;5719;42.714;23.732;2023-07-13T03:53:30;94716.09;;;18.34;100.00
11329;BME280;5719;42.714;23.732;2023-07-13T03:55:58;94700.84;;;18.30;100.00
11329;BME280;5719;42.714;23.732;2023-07-13T03:58:28;94718.09;;;18.40;100.00
11329;BME280;5719;42.714;23.732;2023-07-13T04:00:56;94713.38;;;18.44;100.00
11329;BME280;5719;42.714;23.732;2023-07-13T04:03:23;94693.97;;;18.46;100.00
11329;BME280;5719;42.714;23.732;2023-07-13T04:05:50;94708.16;;;18.61;100.00
11329;BME280;5719;42.714;23.732;2023-07-13T04:08:17;94709.34;;;18.67;100.00
11329;BME280;5719;42.714;23.732;2023-07-13T04:10:44;94712.84;;;18.76;100.00
11329;BME280;5719;42.714;23.732;2023-07-13T04:13:12;94705.00;;;18.76;100.00
11329;BME280;5719;42.714;23.732;2023-07-13T04:15:40;94719.16;;;18.91;100.00
11329;BME280;5719;42.714;23.732;2023-07-13T04:18:07;94721.63;;;18.92;100.00
11329;BME280;5719;42.714;23.732;2023-07-13T04:20:34;94722.25;;;18.86;100.00
11329;BME280;5719;42.714;23.732;2023-07-13T04:23:01;94724.69;;;18.88;100.00
11329;BME280;5719;42.714;23.732;2023-07-13T04:25:30;94710.69;;;18.97;100.00
11329;BME280;5719;42.714;23.732;2023-07-13T04:27:57;94717.59;;;19.06;100.00
11329;BME280;5719;42.714;23.732;2023-07-13T04:30:26;94715.19;;;19.13;100.00
11329;BME280;5719;42.714;23.732;2023-07-13T04:32:53;94729.72;;;19.33;100.00
11329;BME280;5719;42.714;23.732;2023-07-13T04:35:20;94730.94;;;19.46;100.00
11329;BME280;5719;42.714;23.732;2023-07-13T04:37:48;94725.09;;;19.61;100.00
11329;BME280;5719;42.714;23.732;2023-07-13T04:40:16;94727.09;;;19.75;100.00
11329;BME280;5719;42.714;23.732;2023-07-13T04:42:43;94726.97;;;19.84;100.00
11329;BME280;5719;42.714;23.732;2023-07-13T04:45:10;94722.91;;;19.98;100.00
11329;BME280;5719;42.714;23.732;2023-07-13T04:47:40;94716.38;;;20.10;100.00
11329;BME280;5719;42.714;23.732;2023-07-13T04:50:08;94725.56;;;20.22;100.00
11329;BME280;5719;42.714;23.732;2023-07-13T04:52:36;94725.13;;;20.43;100.00
11329;BME280;5719;42.714;23.732;2023-07-13T04:55:04;94729.06;;;20.55;100.00
11329;BME280;5719;42.714;23.732;2023-07-13T04:57:31;94736.94;;;20.71;100.00
11329;BME280;5719;42.714;23.732;2023-07-13T04:59:58;94725.44;;;20.80;100.00
11329;BME280;5719;42.714;23.732;2023-07-13T05:02:26;94730.34;;;20.91;100.00
11329;BME280;5719;42.714;23.732;2023-07-13T05:04:55;94729.19;;;21.02;100.00
11329;BME280;5719;42.714;23.732;2023-07-13T05:07:22;94734.13;;;21.13;100.00
11329;BME280;5719;42.714;23.732;2023-07-13T05:09:49;94737.34;;;21.31;100.00
11329;BME280;5719;42.714;23.732;2023-07-13T05:12:16;94749.84;;;21.45;100.00
11329;BME280;5719;42.714;23.732;2023-07-13T05:14:43;94750.44;;;21.56;100.00
11329;BME280;5719;42.714;23.732;2023-07-13T05:17:10;94750.72;;;21.69;100.00
11329;BME280;5719;42.714;23.732;2023-07-13T05:19:37;94748.19;;;21.83;100.00
11329;BME280;5719;42.714;23.732;2023-07-13T05:22:06;94749.44;;;22.04;100.00
11329;BME280;5719;42.714;23.732;2023-07-13T05:24:33;94746.19;;;22.24;100.00
11329;BME280;5719;42.714;23.732;2023-07-13T05:27:00;94755.25;;;22.44;100.00
11329;BME280;5719;42.714;23.732;2023-07-13T05:29:27;94746.78;;;22.57;100.00
11329;BME280;5719;42.714;23.732;2023-07-13T05:31:54;94750.59;;;22.77;100.00
11329;BME280;5719;42.714;23.732;2023-07-13T05:34:21;94753.41;;;22.99;99.22
11329;BME280;5719;42.714;23.732;2023-07-13T05:36:48;94750.69;;;23.21;97.93
11329;BME280;5719;42.714;23.732;2023-07-13T05:39:16;94760.38;;;23.43;96.08
11329;BME280;5719;42.714;23.732;2023-07-13T05:41:43;94752.91;;;23.62;94.32
11329;BME280;5719;42.714;23.732;2023-07-13T05:44:10;94759.91;;;23.84;91.26
11329;BME280;5719;42.714;23.732;2023-07-13T05:46:37;94756.88;;;24.02;89.39
11329;BME280;5719;42.714;23.732;2023-07-13T05:49:04;94770.53;;;24.20;86.98
11329;BME280;5719;42.714;23.732;2023-07-13T05:51:31;94772.59;;;24.39;84.19
11329;BME280;5719;42.714;23.732;2023-07-13T05:53:58;94774.78;;;24.57;82.48
11329;BME280;5719;42.714;23.732;2023-07-13T05:56:26;94776.38;;;24.72;80.78
11329;BME280;5719;42.714;23.732;2023-07-13T05:58:53;94780.88;;;24.93;80.38
11329;BME280;5719;42.714;23.732;2023-07-13T06:01:20;94781.25;;;24.90;82.20
11329;BME280;5719;42.714;23.732;2023-07-13T06:03:49;94778.91;;;25.02;80.57
11329;BME280;5719;42.714;23.732;2023-07-13T06:06:16;94783.81;;;25.05;80.71
11329;BME280;5719;42.714;23.732;2023-07-13T06:08:43;94778.44;;;24.92;80.60
11329;BME280;5719;42.714;23.732;2023-07-13T06:11:14;94790.50;;;25.01;79.95
11329;BME280;5719;42.714;23.732;2023-07-13T06:13:43;94783.78;;;24.98;81.10
11329;BME280;5719;42.714;23.732;2023-07-13T06:16:10;94777.09;;;25.02;76.96
11329;BME280;5719;42.714;23.732;2023-07-13T06:18:37;94773.63;;;25.29;75.89
11329;BME280;5719;42.714;23.732;2023-07-13T06:21:09;94776.09;;;25.59;74.41
11329;BME280;5719;42.714;23.732;2023-07-13T06:23:36;94783.81;;;25.88;73.06
11329;BME280;5719;42.714;23.732;2023-07-13T06:26:03;94780.47;;;25.73;69.58
11329;BME280;5719;42.714;23.732;2023-07-13T06:28:31;94772.97;;;25.83;72.08
11329;BME280;5719;42.714;23.732;2023-07-13T06:30:59;94744.09;;;25.95;71.96
11329;BME280;5719;42.714;23.732;2023-07-13T06:33:27;94768.75;;;26.43;72.21
11329;BME280;5719;42.714;23.732;2023-07-13T06:35:54;94775.38;;;26.73;70.77
11329;BME280;5719;42.714;23.732;2023-07-13T06:38:22;94776.88;;;26.95;68.85
11329;BME280;5719;42.714;23.732;2023-07-13T06:40:49;94777.28;;;27.25;68.83
11329;BME280;5719;42.714;23.732;2023-07-13T06:43:16;94768.09;;;27.47;68.42
11329;BME280;5719;42.714;23.732;2023-07-13T06:45:45;94771.78;;;27.53;67.59
11329;BME280;5719;42.714;23.732;2023-07-13T06:48:15;94774.00;;;27.16;67.61
11329;BME280;5719;42.714;23.732;2023-07-13T06:50:43;94766.44;;;27.26;69.06
11329;BME280;5719;42.714;23.732;2023-07-13T06:53:10;94762.56;;;27.49;68.06
11329;BME280;5719;42.714;23.732;2023-07-13T06:55:38;94774.59;;;27.71;67.35
11329;BME280;5719;42.714;23.732;2023-07-13T06:58:05;94770.22;;;27.96;67.38
11329;BME280;5719;42.714;23.732;2023-07-13T07:00:32;94759.19;;;28.12;66.62
11329;BME280;5719;42.714;23.732;2023-07-13T07:02:59;94753.56;;;28.27;65.66
11329;BME280;5719;42.714;23.732;2023-07-13T07:05:28;94762.47;;;28.46;62.95
11329;BME280;5719;42.714;23.732;2023-07-13T07:07:55;94753.69;;;28.45;64.00
11329;BME280;5719;42.714;23.732;2023-07-13T07:10:22;94761.44;;;28.47;65.01
11329;BME280;5719;42.714;23.732;2023-07-13T07:12:49;94765.84;;;28.66;62.38
11329;BME280;5719;42.714;23.732;2023-07-13T07:15:17;94772.31;;;28.83;61.99
11329;BME280;5719;42.714;23.732;2023-07-13T07:17:44;94763.41;;;28.64;61.84
11329;BME280;5719;42.714;23.732;2023-07-13T07:20:12;94771.69;;;28.88;62.90
11329;BME280;5719;42.714;23.732;2023-07-13T07:22:40;94773.34;;;28.82;61.41
11329;BME280;5719;42.714;23.732;2023-07-13T07:25:07;94768.72;;;29.02;62.53
11329;BME280;5719;42.714;23.732;2023-07-13T07:27:34;94763.66;;;29.19;62.74
11329;BME280;5719;42.714;23.732;2023-07-13T07:30:01;94765.97;;;29.40;60.55
11329;BME280;5719;42.714;23.732;2023-07-13T07:32:29;94762.09;;;29.61;60.56
11329;BME280;5719;42.714;23.732;2023-07-13T07:34:57;94761.66;;;29.82;60.46
11329;BME280;5719;42.714;23.732;2023-07-13T07:37:24;94751.63;;;30.02;58.26
11329;BME280;5719;42.714;23.732;2023-07-13T07:39:53;94753.16;;;30.28;56.55
11329;BME280;5719;42.714;23.732;2023-07-13T07:42:20;94756.34;;;30.37;55.99
11329;BME280;5719;42.714;23.732;2023-07-13T07:44:46;94755.75;;;29.98;57.84
11329;BME280;5719;42.714;23.732;2023-07-13T07:47:13;94753.41;;;29.65;59.52
11329;BME280;5719;42.714;23.732;2023-07-13T07:49:40;94763.38;;;29.95;59.05
11329;BME280;5719;42.714;23.732;2023-07-13T07:52:08;94764.22;;;30.13;58.67
11329;BME280;5719;42.714;23.732;2023-07-13T07:54:35;94745.19;;;29.92;58.29
11329;BME280;5719;42.714;23.732;2023-07-13T07:57:04;94743.94;;;30.12;56.81
11329;BME280;5719;42.714;23.732;2023-07-13T07:59:31;94748.13;;;30.38;57.41
11329;BME280;5719;42.714;23.732;2023-07-13T08:01:58;94753.22;;;30.40;57.51
11329;BME280;5719;42.714;23.732;2023-07-13T08:04:25;94734.53;;;30.40;55.84
11329;BME280;5719;42.714;23.732;2023-07-13T08:06:51;94735.28;;;30.47;55.01
11329;BME280;5719;42.714;23.732;2023-07-13T08:09:18;94738.63;;;30.72;55.48
11329;BME280;5719;42.714;23.732;2023-07-13T08:11:45;94738.16;;;30.75;56.46
11329;BME280;5719;42.714;23.732;2023-07-13T08:14:14;94731.16;;;30.92;56.11
11329;BME280;5719;42.714;23.732;2023-07-13T08:16:42;94735.66;;;31.22;55.60
11329;BME280;5719;42.714;23.732;2023-07-13T08:19:08;94737.03;;;31.24;56.14
11329;BME280;5719;42.714;23.732;2023-07-13T08:21:36;94740.63;;;31.30;54.95
11329;BME280;5719;42.714;23.732;2023-07-13T08:24:04;94739.47;;;31.37;53.64
11329;BME280;5719;42.714;23.732;2023-07-13T08:26:31;94729.59;;;31.49;53.14
11329;BME280;5719;42.714;23.732;2023-07-13T08:28:57;94723.22;;;31.85;54.84
11329;BME280;5719;42.714;23.732;2023-07-13T08:31:26;94733.88;;;32.20;53.46
11329;BME280;5719;42.714;23.732;2023-07-13T08:33:53;94728.09;;;32.40;51.70
11329;BME280;5719;42.714;23.732;2023-07-13T08:36:20;94721.72;;;32.69;53.42
11329;BME280;5719;42.714;23.732;2023-07-13T08:38:47;94688.84;;;32.74;52.09
11329;BME280;5719;42.714;23.732;2023-07-13T08:41:15;94722.31;;;33.04;51.31
11329;BME280;5719;42.714;23.732;2023-07-13T08:43:46;94719.53;;;33.11;51.02
11329;BME280;5719;42.714;23.732;2023-07-13T08:46:17;94722.47;;;32.98;49.14
11329;BME280;5719;42.714;23.732;2023-07-13T08:48:50;94722.22;;;32.83;49.50
11329;BME280;5719;42.714;23.732;2023-07-13T08:51:30;94724.34;;;32.81;50.05
11329;BME280;5719;42.714;23.732;2023-07-13T08:54:02;94717.19;;;32.86;48.35
11329;BME280;5719;42.714;23.732;2023-07-13T08:56:31;94697.50;;;32.92;48.22
11329;BME280;5719;42.714;23.732;2023-07-13T08:59:00;94710.28;;;33.19;44.17
11329;BME280;5719;42.714;23.732;2023-07-13T09:01:53;94714.22;;;32.99;44.82
11329;BME280;5719;42.714;23.732;2023-07-13T09:04:27;94707.34;;;33.20;45.36
11329;BME280;5719;42.714;23.732;2023-07-13T09:07:02;94719.59;;;33.66;43.17
11329;BME280;5719;42.714;23.732;2023-07-13T09:09:43;94712.63;;;33.65;43.41
11329;BME280;5719;42.714;23.732;2023-07-13T09:12:19;94725.66;;;33.78;44.56
11329;BME280;5719;42.714;23.732;2023-07-13T09:14:53;94730.88;;;33.68;40.90
11329;BME280;5719;42.714;23.732;2023-07-13T09:17:26;94726.19;;;33.97;41.05
11329;BME280;5719;42.714;23.732;2023-07-13T09:19:59;94726.81;;;34.21;37.45
11329;BME280;5719;42.714;23.732;2023-07-13T09:22:27;94724.22;;;33.92;37.06
11329;BME280;5719;42.714;23.732;2023-07-13T09:25:00;94726.25;;;33.80;39.66
11329;BME280;5719;42.714;23.732;2023-07-13T09:27:29;94729.38;;;33.77;38.09
11329;BME280;5719;42.714;23.732;2023-07-13T09:30:15;94725.56;;;33.90;37.75
11329;BME280;5719;42.714;23.732;2023-07-13T09:32:48;94711.03;;;34.29;40.13
11329;BME280;5719;42.714;23.732;2023-07-13T09:35:22;94712.78;;;34.19;37.02
11329;BME280;5719;42.714;23.732;2023-07-13T09:37:56;94714.31;;;34.31;38.55
11329;BME280;5719;42.714;23.732;2023-07-13T09:40:28;94720.16;;;34.50;38.22
11329;BME280;5719;42.714;23.732;2023-07-13T09:42:56;94716.28;;;34.63;36.02
11329;BME280;5719;42.714;23.732;2023-07-13T09:45:29;94716.34;;;34.46;33.39
11329;BME280;5719;42.714;23.732;2023-07-13T09:48:02;94717.81;;;34.32;33.70
11329;BME280;5719;42.714;23.732;2023-07-13T09:50:31;94711.41;;;34.38;34.57
11329;BME280;5719;42.714;23.732;2023-07-13T09:53:00;94701.28;;;34.45;34.88
11329;BME280;5719;42.714;23.732;2023-07-13T09:55:30;94694.56;;;34.42;34.62
11329;BME280;5719;42.714;23.732;2023-07-13T09:57:58;94684.56;;;34.38;33.43
11329;BME280;5719;42.714;23.732;2023-07-13T10:00:30;94685.53;;;34.27;35.74
11329;BME280;5719;42.714;23.732;2023-07-13T10:03:02;94696.75;;;34.24;36.38
11329;BME280;5719;42.714;23.732;2023-07-13T10:05:40;94683.34;;;34.24;34.05
11329;BME280;5719;42.714;23.732;2023-07-13T10:08:19;94686.81;;;34.46;35.21
11329;BME280;5719;42.714;23.732;2023-07-13T10:10:52;94686.69;;;34.36;33.52
11329;BME280;5719;42.714;23.732;2023-07-13T10:13:34;94690.09;;;34.53;34.25
11329;BME280;5719;42.714;23.732;2023-07-13T10:16:04;94690.91;;;34.54;35.41
11329;BME280;5719;42.714;23.732;2023-07-13T10:18:39;94681.47;;;34.24;37.19
11329;BME280;5719;42.714;23.732;2023-07-13T10:21:16;94684.81;;;34.36;36.45
11329;BME280;5719;42.714;23.732;2023-07-13T10:23:45;94680.41;;;34.52;35.72
11329;BME280;5719;42.714;23.732;2023-07-13T10:26:18;94683.28;;;34.67;35.60
11329;BME280;5719;42.714;23.732;2023-07-13T10:28:51;94679.56;;;35.00;36.56
11329;BME280;5719;42.714;23.732;2023-07-13T10:31:21;94677.56;;;35.17;38.12
11329;BME280;5719;42.714;23.732;2023-07-13T10:33:48;94682.19;;;35.27;36.41
11329;BME280;5719;42.714;23.732;2023-07-13T10:36:25;94670.44;;;35.33;38.09
11329;BME280;5719;42.714;23.732;2023-07-13T10:38:55;94674.19;;;35.32;35.41
11329;BME280;5719;42.714;23.732;2023-07-13T10:41:26;94667.56;;;35.50;36.10
11329;BME280;5719;42.714;23.732;2023-07-13T10:43:55;94673.22;;;35.53;33.78
11329;BME280;5719;42.714;23.732;2023-07-13T10:46:25;94670.84;;;35.57;33.47
11329;BME280;5719;42.714;23.732;2023-07-13T10:48:56;94669.59;;;35.69;34.21
11329;BME280;5719;42.714;23.732;2023-07-13T10:51:26;94665.03;;;35.70;36.95
11329;BME280;5719;42.714;23.732;2023-07-13T10:54:17;94657.25;;;35.78;35.43
11329;BME280;5719;42.714;23.732;2023-07-13T10:56:45;94647.41;;;35.99;33.81
11329;BME280;5719;42.714;23.732;2023-07-13T10:59:15;94653.41;;;36.16;33.80
11329;BME280;5719;42.714;23.732;2023-07-13T11:01:50;94647.97;;;36.06;34.90
11329;BME280;5719;42.714;23.732;2023-07-13T11:04:20;94645.53;;;36.05;34.41
11329;BME280;5719;42.714;23.732;2023-07-13T11:06:52;94637.53;;;36.10;33.50
11329;BME280;5719;42.714;23.732;2023-07-13T11:09:35;94640.81;;;36.32;34.54
11329;BME280;5719;42.714;23.732;2023-07-13T11:12:08;94638.63;;;36.24;34.14
11329;BME280;5719;42.714;23.732;2023-07-13T11:14:43;94631.97;;;36.47;33.31
11329;BME280;5719;42.714;23.732;2023-07-13T11:17:37;94627.91;;;36.54;33.84
11329;BME280;5719;42.714;23.732;2023-07-13T11:23:08;94638.13;;;35.70;35.06
11329;BME280;5719;42.714;23.732;2023-07-13T11:25:36;94630.91;;;35.80;35.17
11329;BME280;5719;42.714;23.732;2023-07-13T11:28:12;94628.59;;;35.57;35.71
11329;BME280;5719;42.714;23.732;2023-07-13T11:30:43;94628.97;;;35.66;35.36
11329;BME280;5719;42.714;23.732;2023-07-13T11:33:16;94632.16;;;36.20;34.15
11329;BME280;5719;42.714;23.732;2023-07-13T11:35:59;94618.75;;;36.55;34.92
11329;BME280;5719;42.714;23.732;2023-07-13T11:38:32;94619.31;;;36.72;34.56
11329;BME280;5719;42.714;23.732;2023-07-13T11:41:03;94616.59;;;36.52;36.04
11329;BME280;5719;42.714;23.732;2023-07-13T11:43:30;94627.97;;;36.74;35.74
11329;BME280;5719;42.714;23.732;2023-07-13T11:46:12;94621.25;;;36.82;35.03
11329;BME280;5719;42.714;23.732;2023-07-13T11:48:39;94621.78;;;36.94;33.55
11329;BME280;5719;42.714;23.732;2023-07-13T11:51:13;94611.53;;;37.21;33.38
11329;BME280;5719;42.714;23.732;2023-07-13T11:53:48;94616.66;;;37.48;33.05
11329;BME280;5719;42.714;23.732;2023-07-13T11:56:15;94621.16;;;37.78;33.35
11329;BME280;5719;42.714;23.732;2023-07-13T11:58:42;94607.91;;;37.82;33.73
11329;BME280;5719;42.714;23.732;2023-07-13T12:01:18;94607.81;;;38.07;33.22
11329;BME280;5719;42.714;23.732;2023-07-13T12:03:46;94605.16;;;37.97;32.61
11329;BME280;5719;42.714;23.732;2023-07-13T12:06:25;94598.03;;;38.16;32.55
11329;BME280;5719;42.714;23.732;2023-07-13T12:08:56;94592.22;;;38.38;33.15
11329;BME280;5719;42.714;23.732;2023-07-13T12:11:23;94592.19;;;38.48;32.63
11329;BME280;5719;42.714;23.732;2023-07-13T12:13:50;94583.50;;;38.07;31.47
11329;BME280;5719;42.714;23.732;2023-07-13T12:16:23;94581.84;;;38.16;31.99
11329;BME280;5719;42.714;23.732;2023-07-13T12:18:52;94566.56;;;38.40;31.29
11329;BME280;5719;42.714;23.732;2023-07-13T12:21:23;94565.75;;;38.84;31.04
11329;BME280;5719;42.714;23.732;2023-07-13T12:23:54;94564.31;;;38.52;31.57
11329;BME280;5719;42.714;23.732;2023-07-13T12:26:21;94573.09;;;38.39;32.92
11329;BME280;5719;42.714;23.732;2023-07-13T12:28:49;94562.22;;;38.44;33.67
11329;BME280;5719;42.714;23.732;2023-07-13T12:31:29;94563.03;;;38.84;33.28
11329;BME280;5719;42.714;23.732;2023-07-13T12:33:58;94560.59;;;39.11;31.58
11329;BME280;5719;42.714;23.732;2023-07-13T12:36:25;94558.25;;;39.04;30.24
11329;BME280;5719;42.714;23.732;2023-07-13T12:38:57;94557.31;;;39.14;30.94
11329;BME280;5719;42.714;23.732;2023-07-13T12:41:29;94559.53;;;39.12;31.00
11329;BME280;5719;42.714;23.732;2023-07-13T12:43:56;94552.22;;;39.41;31.82
11329;BME280;5719;42.714;23.732;2023-07-13T12:46:24;94547.59;;;39.65;29.53
11329;BME280;5719;42.714;23.732;2023-07-13T12:48:54;94541.09;;;39.66;28.46
11329;BME280;5719;42.714;23.732;2023-07-13T12:51:25;94538.56;;;39.51;28.18
11329;BME280;5719;42.714;23.732;2023-07-13T12:53:58;94539.09;;;39.24;29.33
11329;BME280;5719;42.714;23.732;2023-07-13T12:56:27;94532.81;;;38.71;29.34
11329;BME280;5719;42.714;23.732;2023-07-13T12:58:58;94527.41;;;38.71;28.94
11329;BME280;5719;42.714;23.732;2023-07-13T13:01:28;94533.66;;;38.67;29.83
11329;BME280;5719;42.714;23.732;2023-07-13T13:03:55;94526.84;;;38.74;28.37
11329;BME280;5719;42.714;23.732;2023-07-13T13:06:25;94527.34;;;39.10;28.89
11329;BME280;5719;42.714;23.732;2023-07-13T13:08:55;94525.44;;;39.11;29.42